Time;durP1;ratioP1;P1;durP2;ratioP2;P2;SDS_P1;SDS_P2;PMS_P1;PMS_P2;Temp;Humidity;BMP_temperature;BMP_pressure;BME280_temperature;BME280_humidity;BME280_pressure;Samples;Min_cycle;Max_cycle;Signal;HPM_P1;HPM_P2
2021/09/30 00:01:34;;;;;;;2.47;1.20;;;21.80;70.40;;;;;;5113158;28;20027;-75
2021/09/30 00:04:00;;;;;;;1.10;1.00;;;21.80;70.10;;;;;;5113035;28;20027;-69
2021/09/30 00:06:25;;;;;;;1.35;1.17;;;21.80;70.10;;;;;;5113048;28;20024;-71
2021/09/30 00:08:51;;;;;;;1.15;1.05;;;21.70;71.00;;;;;;5113015;28;20069;-75
2021/09/30 00:11:23;;;;;;;1.23;1.10;;;21.70;71.90;;;;;;5112599;28;20051;-68
2021/09/30 00:13:54;;;;;;;1.05;0.73;;;21.60;71.70;;;;;;5113345;28;20027;-69
2021/09/30 00:17:03;;;;;;;0.90;0.70;;;21.60;71.40;;;;;;5113057;28;20015;-69
2021/09/30 00:32:59;;;;;;;2.05;0.60;;;21.50;70.00;;;;;;5113392;28;20055;-69
2021/09/30 00:35:39;;;;;;;0.70;0.60;;;21.60;67.50;;;;;;5115289;28;20706;-69
2021/09/30 00:46:05;;;;;;;2.40;0.60;;;21.40;67.40;;;;;;5116282;28;20035;-71
2021/09/30 01:22:54;;;;;;;0.82;0.52;;;20.30;76.70;;;;;;5115019;28;20032;-69
2021/09/30 02:19:54;;;;;;;0.65;0.45;;;19.70;79.70;;;;;;5114290;28;20058;-69
2021/09/30 02:22:42;;;;;;;1.17;0.40;;;19.70;79.10;;;;;;5114440;28;20471;-69
2021/09/30 02:39:16;;;;;;;1.50;0.57;;;19.60;80.40;;;;;;5053375;28;20176;-72
2021/09/30 02:58:31;;;;;;;8.10;0.90;;;19.50;79.80;;;;;;5052809;28;20067;-73
2021/09/30 03:01:03;;;;;;;4.50;1.00;;;19.50;83.20;;;;;;5053214;28;20401;-71
2021/09/30 03:03:33;;;;;;;7.30;1.05;;;19.40;83.20;;;;;;5052003;28;20017;-73
2021/09/30 03:05:59;;;;;;;3.97;0.70;;;19.40;83.80;;;;;;5052929;28;20033;-73
2021/09/30 03:08:27;;;;;;;4.50;0.82;;;19.40;85.70;;;;;;5052910;28;20021;-73
2021/09/30 03:10:55;;;;;;;4.40;1.00;;;19.40;84.60;;;;;;5052852;28;20476;-73
2021/09/30 03:13:22;;;;;;;2.25;0.90;;;19.30;84.60;;;;;;5052793;28;20025;-73
2021/09/30 03:16:02;;;;;;;3.13;1.10;;;19.40;84.70;;;;;;5052767;28;20021;-73
2021/09/30 03:23:42;;;;;;;7.32;0.90;;;19.30;85.40;;;;;;5052830;28;20036;-73
2021/09/30 03:26:08;;;;;;;4.28;0.90;;;19.20;85.80;;;;;;5052745;28;20029;-73
2021/09/30 03:28:35;;;;;;;9.07;1.05;;;19.20;85.90;;;;;;5052397;28;20028;-72
2021/09/30 03:31:02;;;;;;;1.75;0.90;;;19.10;86.40;;;;;;5052328;28;20490;-73
2021/09/30 03:33:29;;;;;;;1.17;0.68;;;19.10;85.80;;;;;;5052432;28;20031;-73
2021/09/30 03:35:55;;;;;;;4.53;0.85;;;19.20;87.10;;;;;;5052469;28;20469;-72
2021/09/30 03:38:22;;;;;;;2.80;0.70;;;19.20;85.90;;;;;;5052837;28;20029;-73
2021/09/30 03:40:48;;;;;;;3.63;0.85;;;19.20;86.70;;;;;;5052446;28;20120;-73
2021/09/30 03:43:14;;;;;;;6.32;0.90;;;19.20;87.40;;;;;;5052108;28;20476;-73
2021/09/30 03:45:40;;;;;;;6.78;0.90;;;19.10;87.90;;;;;;5052310;28;20427;-73
2021/09/30 03:48:07;;;;;;;1.77;0.70;;;19.20;87.70;;;;;;5052715;28;20071;-72
2021/09/30 03:50:46;;;;;;;6.00;0.90;;;19.10;87.50;;;;;;5052440;28;20021;-73
2021/09/30 03:53:20;;;;;;;2.08;0.60;;;19.10;88.10;;;;;;5052295;28;20386;-72
2021/09/30 03:56:08;;;;;;;10.30;0.73;;;19.10;87.60;;;;;;5052182;28;20071;-72
2021/09/30 04:01:18;;;;;;;3.40;0.68;;;19.10;89.10;;;;;;5052671;28;20032;-72
2021/09/30 04:03:44;;;;;;;4.43;0.60;;;19.10;89.10;;;;;;5052374;28;20029;-72
2021/09/30 04:06:10;;;;;;;3.47;0.80;;;19.10;89.80;;;;;;5052664;28;20070;-72
2021/09/30 04:08:37;;;;;;;1.48;0.60;;;19.10;90.30;;;;;;5052349;28;20378;-71
2021/09/30 04:11:03;;;;;;;1.05;0.60;;;19.00;90.50;;;;;;5055643;28;20512;-72
2021/09/30 04:13:28;;;;;;;4.63;0.75;;;19.00;89.10;;;;;;5055971;28;20027;-72
2021/09/30 04:15:54;;;;;;;4.65;0.80;;;19.00;90.00;;;;;;5055958;28;20025;-73
2021/09/30 04:18:20;;;;;;;3.13;0.60;;;19.00;89.00;;;;;;5055999;28;20112;-73
2021/09/30 04:20:45;;;;;;;5.43;0.40;;;18.90;88.10;;;;;;5056032;28;20358;-73
2021/09/30 04:23:11;;;;;;;1.27;0.57;;;19.00;88.70;;;;;;5056033;28;20148;-73
2021/09/30 04:25:38;;;;;;;4.00;0.75;;;18.80;88.50;;;;;;5055929;28;20048;-73
2021/09/30 04:28:04;;;;;;;3.80;0.60;;;18.80;92.30;;;;;;5055802;28;20112;-72
2021/09/30 04:30:30;;;;;;;4.55;0.60;;;18.70;88.20;;;;;;5055587;28;20045;-74
2021/09/30 04:32:55;;;;;;;4.22;0.60;;;18.60;88.80;;;;;;5055556;28;20504;-72
2021/09/30 04:35:22;;;;;;;3.58;0.60;;;18.70;87.20;;;;;;5055519;28;20017;-72
2021/09/30 04:37:48;;;;;;;0.63;0.45;;;18.70;81.10;;;;;;5056035;28;20438;-72
2021/09/30 04:40:14;;;;;;;4.05;0.60;;;18.70;80.90;;;;;;5055408;28;20104;-73
2021/09/30 04:42:39;;;;;;;1.65;0.70;;;18.70;79.50;;;;;;5055557;28;20021;-70
2021/09/30 04:45:06;;;;;;;0.68;0.50;;;18.70;77.50;;;;;;5055761;28;20109;-72
2021/09/30 04:47:32;;;;;;;1.67;0.70;;;18.60;76.20;;;;;;5055465;28;20022;-73
2021/09/30 04:49:58;;;;;;;0.93;0.60;;;18.50;76.50;;;;;;5055421;28;20108;-73
2021/09/30 04:52:23;;;;;;;1.85;0.82;;;18.50;76.30;;;;;;5055261;28;20116;-71
2021/09/30 04:54:50;;;;;;;2.28;0.68;;;18.50;75.70;;;;;;5055146;28;20498;-72
2021/09/30 04:57:16;;;;;;;4.63;0.70;;;18.50;76.40;;;;;;5055133;28;20051;-72
2021/09/30 04:59:42;;;;;;;2.40;0.60;;;18.40;76.00;;;;;;5055250;28;20465;-73
2021/09/30 05:02:08;;;;;;;4.72;1.05;;;18.50;77.70;;;;;;5053808;28;20051;-73
2021/09/30 05:04:33;;;;;;;4.32;0.82;;;18.50;78.40;;;;;;5055310;28;20021;-73
2021/09/30 05:06:59;;;;;;;4.90;0.52;;;18.50;78.50;;;;;;5055089;28;20029;-72
2021/09/30 05:09:26;;;;;;;2.88;0.80;;;18.50;76.40;;;;;;5055158;28;20033;-72
2021/09/30 05:11:56;;;;;;;3.35;1.05;;;18.30;76.60;;;;;;5055018;28;20120;-72
2021/09/30 05:14:22;;;;;;;3.03;0.70;;;18.30;76.90;;;;;;5055131;28;20385;-72
2021/09/30 05:16:49;;;;;;;5.55;0.70;;;18.40;76.30;;;;;;5054804;28;20036;-72
2021/09/30 05:19:15;;;;;;;1.38;0.63;;;18.30;78.40;;;;;;5054647;28;20029;-72
2021/09/30 05:21:41;;;;;;;3.90;0.60;;;18.30;77.30;;;;;;5054238;28;20033;-73
2021/09/30 05:24:07;;;;;;;1.92;1.00;;;18.30;76.30;;;;;;5054935;28;20025;-73
2021/09/30 05:26:33;;;;;;;1.98;0.68;;;18.30;75.50;;;;;;5054643;28;20535;-72
2021/09/30 05:29:00;;;;;;;3.50;0.70;;;18.30;76.30;;;;;;5054780;28;20041;-73
2021/09/30 05:31:28;;;;;;;1.95;0.73;;;18.20;77.10;;;;;;5054812;28;20504;-72
2021/09/30 05:33:54;;;;;;;3.83;0.80;;;18.10;76.30;;;;;;5054851;28;20036;-72
2021/09/30 05:36:20;;;;;;;1.90;0.80;;;18.10;76.70;;;;;;5054726;28;20029;-73
2021/09/30 05:38:46;;;;;;;1.33;0.80;;;18.10;76.80;;;;;;5052441;28;20032;-73
2021/09/30 05:41:12;;;;;;;2.65;0.90;;;18.10;76.60;;;;;;5054281;28;20424;-73
2021/09/30 05:43:38;;;;;;;2.97;0.88;;;18.20;77.00;;;;;;5054195;28;20030;-73
2021/09/30 05:46:06;;;;;;;1.58;0.80;;;18.20;77.80;;;;;;5053856;28;20098;-72
2021/09/30 05:48:32;;;;;;;1.77;0.73;;;18.30;78.10;;;;;;5054083;28;20492;-73
2021/09/30 05:50:58;;;;;;;1.42;0.80;;;18.30;78.20;;;;;;5054051;28;20081;-73
2021/09/30 05:53:24;;;;;;;2.58;0.70;;;18.30;79.10;;;;;;5054298;28;20473;-72
2021/09/30 05:55:50;;;;;;;2.90;0.80;;;18.30;77.90;;;;;;5054293;28;20078;-69
2021/09/30 05:58:16;;;;;;;2.65;0.50;;;18.30;76.00;;;;;;5053707;28;20021;-69
2021/09/30 06:11:19;;;;;;;0.50;0.40;;;18.50;85.90;;;;;;5053822;28;20114;-69
2021/09/30 06:13:56;;;;;;;1.83;0.55;;;18.60;91.30;;;;;;5053502;28;20074;-68
2021/09/30 06:16:23;;;;;;;3.33;0.57;;;18.60;73.00;;;;;;5053387;28;20021;-71
2021/09/30 06:18:49;;;;;;;1.65;0.63;;;18.70;72.70;;;;;;5053515;28;20036;-69
2021/09/30 06:21:15;;;;;;;2.45;0.63;;;18.70;73.30;;;;;;5053262;28;20370;-69
2021/09/30 06:23:41;;;;;;;1.92;0.60;;;18.70;73.00;;;;;;5053173;28;20437;-69
2021/09/30 06:26:06;;;;;;;1.92;0.60;;;18.80;73.10;;;;;;5053121;28;20056;-69
2021/09/30 06:28:32;;;;;;;3.55;0.60;;;18.80;73.50;;;;;;5052943;28;20504;-69
2021/09/30 06:30:58;;;;;;;1.55;0.60;;;18.90;73.60;;;;;;5052882;28;20532;-69
2021/09/30 06:33:24;;;;;;;2.72;0.60;;;18.90;73.10;;;;;;5052175;28;20028;-69
2021/09/30 06:35:53;;;;;;;2.30;0.70;;;19.00;72.50;;;;;;5052943;28;20033;-68
2021/09/30 06:38:19;;;;;;;1.63;0.70;;;19.00;73.10;;;;;;5052980;28;20091;-69
2021/09/30 06:40:45;;;;;;;2.45;0.60;;;19.00;73.60;;;;;;5052689;28;20031;-69
2021/09/30 06:43:12;;;;;;;1.30;0.77;;;19.10;72.20;;;;;;5053095;28;20401;-69
2021/09/30 06:45:38;;;;;;;2.13;0.60;;;19.10;71.50;;;;;;5052920;28;20029;-69
2021/09/30 06:48:04;;;;;;;3.25;0.90;;;19.20;71.00;;;;;;5052972;28;20403;-69
2021/09/30 06:50:30;;;;;;;1.13;0.60;;;19.20;70.80;;;;;;5053031;28;20028;-69
2021/09/30 06:52:56;;;;;;;1.27;0.60;;;19.20;70.70;;;;;;5053377;28;20028;-68
2021/09/30 06:55:22;;;;;;;1.77;0.60;;;19.30;68.80;;;;;;5053097;28;20096;-68
2021/09/30 06:57:50;;;;;;;3.75;0.80;;;19.40;68.40;;;;;;5053081;28;20467;-73
2021/09/30 07:00:16;;;;;;;1.55;0.60;;;19.40;67.50;;;;;;5053202;28;20028;-74
2021/09/30 07:02:43;;;;;;;4.82;0.60;;;19.50;67.90;;;;;;5052953;28;20025;-74
2021/09/30 07:05:11;;;;;;;3.08;0.70;;;19.60;67.60;;;;;;5052820;28;20032;-73
2021/09/30 07:07:36;;;;;;;1.73;0.77;;;19.60;68.00;;;;;;5052616;28;20052;-72
2021/09/30 07:10:08;;;;;;;1.75;0.52;;;19.60;67.90;;;;;;5052643;28;20069;-73
2021/09/30 07:12:34;;;;;;;1.98;0.60;;;19.70;67.70;;;;;;5052727;28;20083;-72
2021/09/30 07:14:59;;;;;;;1.30;0.80;;;19.80;67.30;;;;;;5053068;28;20477;-73
2021/09/30 07:17:25;;;;;;;5.10;0.73;;;19.80;66.80;;;;;;5052851;28;20070;-75
2021/09/30 07:19:51;;;;;;;1.10;0.60;;;19.90;66.70;;;;;;5052517;28;20070;-73
2021/09/30 07:22:17;;;;;;;5.15;0.60;;;19.90;65.60;;;;;;5052512;28;20112;-74
2021/09/30 07:24:42;;;;;;;2.67;1.00;;;20.00;65.10;;;;;;5052777;28;20028;-75
2021/09/30 07:27:09;;;;;;;4.90;0.60;;;20.00;64.20;;;;;;5051389;28;20424;-70
2021/09/30 07:29:36;;;;;;;1.38;0.60;;;20.00;64.20;;;;;;5052427;28;20041;-70
2021/09/30 07:32:02;;;;;;;5.07;0.73;;;20.00;63.60;;;;;;5052275;28;20048;-73
2021/09/30 07:34:29;;;;;;;2.75;0.70;;;20.00;64.50;;;;;;5052265;28;20052;-71
2021/09/30 07:36:55;;;;;;;0.95;0.70;;;20.00;65.60;;;;;;5051795;28;20023;-71
2021/09/30 07:39:21;;;;;;;1.00;0.63;;;20.10;64.60;;;;;;5052230;28;20021;-71
2021/09/30 07:41:47;;;;;;;1.77;0.80;;;20.10;64.70;;;;;;5052768;28;20025;-72
2021/09/30 07:44:13;;;;;;;4.35;0.90;;;20.10;65.50;;;;;;5054398;28;20033;-73
2021/09/30 07:46:41;;;;;;;3.00;0.85;;;20.20;65.10;;;;;;5055662;28;20052;-72
2021/09/30 07:49:07;;;;;;;3.90;0.80;;;20.20;64.60;;;;;;5055255;28;20029;-73
2021/09/30 07:51:34;;;;;;;2.55;0.70;;;20.30;64.90;;;;;;5055312;28;20120;-71
2021/09/30 07:54:00;;;;;;;1.77;0.80;;;20.40;64.80;;;;;;5055170;28;20083;-70
2021/09/30 07:56:27;;;;;;;1.85;0.70;;;20.40;64.30;;;;;;5056136;28;20033;-72
2021/09/30 07:58:53;;;;;;;1.65;0.60;;;20.50;64.30;;;;;;5056526;28;20021;-71
2021/09/30 08:01:20;;;;;;;1.08;0.52;;;20.50;64.10;;;;;;5056680;28;20473;-70
2021/09/30 08:03:46;;;;;;;0.90;0.50;;;20.60;63.50;;;;;;5057104;28;20028;-71
2021/09/30 08:06:12;;;;;;;1.45;0.68;;;20.70;62.60;;;;;;5056384;28;20466;-72
2021/09/30 08:08:38;;;;;;;1.27;0.50;;;20.70;61.20;;;;;;5056346;28;20033;-72
2021/09/30 08:11:04;;;;;;;4.13;0.68;;;20.80;60.10;;;;;;5056249;28;20021;-72
2021/09/30 08:13:31;;;;;;;0.93;0.50;;;20.80;60.90;;;;;;5056213;28;20021;-72
2021/09/30 08:15:57;;;;;;;0.95;0.55;;;20.80;60.60;;;;;;5054871;28;20025;-71
2021/09/30 08:18:23;;;;;;;2.17;0.50;;;20.80;60.50;;;;;;5056241;28;20040;-72
2021/09/30 08:20:49;;;;;;;1.17;0.60;;;20.90;60.50;;;;;;5056180;28;20020;-72
2021/09/30 08:23:15;;;;;;;1.23;0.50;;;20.90;61.10;;;;;;5056112;28;20370;-72
2021/09/30 08:25:42;;;;;;;1.40;0.40;;;20.90;60.60;;;;;;5056186;28;20028;-72
2021/09/30 08:28:09;;;;;;;2.88;0.60;;;20.90;59.70;;;;;;5056261;28;20532;-72
2021/09/30 08:30:36;;;;;;;2.03;0.80;;;21.00;60.10;;;;;;5055972;28;20056;-72
2021/09/30 08:33:03;;;;;;;2.75;0.70;;;21.00;59.30;;;;;;5055798;28;20039;-72
2021/09/30 08:35:28;;;;;;;2.97;0.70;;;21.00;59.30;;;;;;5055977;28;20107;-70
2021/09/30 08:37:54;;;;;;;1.27;0.73;;;21.10;59.90;;;;;;5055947;28;20061;-72
2021/09/30 08:40:20;;;;;;;1.63;0.75;;;21.20;59.50;;;;;;5055876;28;20385;-72
2021/09/30 08:42:49;;;;;;;0.40;0.38;;;21.30;58.50;;;;;;5056018;28;20031;-72
2021/09/30 08:45:20;;;;;;;2.85;0.65;;;21.30;57.00;;;;;;5056010;28;20049;-72
2021/09/30 08:47:54;;;;;;;0.50;0.50;;;21.20;56.40;;;;;;5055701;28;20029;-72
2021/09/30 08:50:20;;;;;;;1.05;0.50;;;21.30;56.00;;;;;;5055432;28;20483;-72
2021/09/30 08:52:45;;;;;;;0.82;0.47;;;21.20;56.80;;;;;;5055768;28;20125;-71
2021/09/30 08:55:11;;;;;;;2.17;0.47;;;21.20;56.60;;;;;;5054733;28;20067;-72
2021/09/30 08:57:37;;;;;;;1.52;0.70;;;21.30;57.10;;;;;;5055332;28;20029;-72
2021/09/30 09:00:07;;;;;;;1.88;0.60;;;21.30;57.00;;;;;;5055417;28;20067;-72
2021/09/30 09:02:40;;;;;;;1.40;0.50;;;21.30;57.20;;;;;;5055578;28;20033;-72
2021/09/30 09:05:07;;;;;;;3.80;0.63;;;21.40;56.90;;;;;;5055578;28;20029;-72
2021/09/30 09:07:33;;;;;;;1.13;0.45;;;21.40;57.10;;;;;;5055513;28;20035;-73
2021/09/30 09:10:03;;;;;;;1.95;0.65;;;21.40;57.60;;;;;;5055207;28;20031;-73
2021/09/30 09:12:31;;;;;;;3.05;0.60;;;21.40;56.10;;;;;;5055086;28;20033;-72
2021/09/30 09:14:58;;;;;;;1.23;0.50;;;21.50;55.70;;;;;;5055296;28;20024;-72
2021/09/30 09:17:24;;;;;;;0.57;0.50;;;21.50;56.30;;;;;;5055426;28;20029;-73
2021/09/30 09:19:55;;;;;;;0.77;0.60;;;21.50;56.10;;;;;;5055301;28;20487;-73
2021/09/30 09:22:37;;;;;;;1.83;0.60;;;21.40;55.40;;;;;;5055023;28;20040;-73
2021/09/30 09:25:15;;;;;;;1.75;0.70;;;21.40;55.30;;;;;;5055432;28;20023;-73
2021/09/30 09:27:51;;;;;;;0.80;0.60;;;21.40;55.30;;;;;;5055069;28;20021;-72
2021/09/30 09:30:28;;;;;;;1.58;0.60;;;21.40;54.90;;;;;;5054736;28;20493;-73
2021/09/30 09:33:14;;;;;;;1.38;0.70;;;21.40;54.70;;;;;;5054658;28;20033;-72
2021/09/30 09:35:53;;;;;;;1.88;0.90;;;21.40;55.10;;;;;;5054776;28;20485;-73
2021/09/30 09:38:21;;;;;;;3.55;0.60;;;21.40;54.50;;;;;;5054552;28;20017;-73
2021/09/30 09:40:51;;;;;;;0.90;0.80;;;21.40;54.50;;;;;;5054749;28;20025;-72
2021/09/30 09:43:29;;;;;;;1.65;0.85;;;21.30;54.70;;;;;;5054618;28;20100;-73
2021/09/30 09:45:55;;;;;;;1.83;0.80;;;21.30;54.30;;;;;;5054633;28;20373;-73
2021/09/30 09:48:20;;;;;;;1.00;0.73;;;21.30;54.70;;;;;;5054873;28;20035;-73
2021/09/30 09:50:51;;;;;;;1.23;0.55;;;21.20;55.10;;;;;;5054682;28;20021;-73
2021/09/30 09:53:18;;;;;;;3.03;1.17;;;21.20;54.70;;;;;;5054656;28;20040;-72
2021/09/30 09:55:43;;;;;;;2.05;0.70;;;21.20;55.40;;;;;;5054058;28;20025;-72
2021/09/30 09:58:17;;;;;;;2.10;0.90;;;21.20;54.90;;;;;;5054451;28;20111;-72
2021/09/30 10:00:49;;;;;;;0.90;0.70;;;21.30;54.80;;;;;;5054649;28;20025;-73
2021/09/30 10:03:26;;;;;;;0.60;0.47;;;21.40;55.00;;;;;;5054327;28;20029;-73
2021/09/30 10:05:53;;;;;;;2.85;1.30;;;21.40;54.40;;;;;;5053085;28;20087;-75
2021/09/30 10:08:19;;;;;;;3.50;0.73;;;21.30;54.50;;;;;;5054115;28;20436;-72
2021/09/30 10:10:48;;;;;;;1.27;0.45;;;21.40;54.90;;;;;;5054151;28;20028;-73
2021/09/30 10:13:15;;;;;;;0.98;0.68;;;21.40;54.20;;;;;;5054397;28;20025;-71
2021/09/30 10:15:41;;;;;;;0.90;0.70;;;21.50;52.90;;;;;;5054207;28;20481;-72
2021/09/30 10:18:09;;;;;;;2.50;0.50;;;21.60;53.70;;;;;;5054108;28;20029;-73
2021/09/30 10:20:38;;;;;;;2.70;0.93;;;21.60;53.50;;;;;;5054174;28;20068;-73
2021/09/30 10:23:07;;;;;;;5.20;0.50;;;21.70;52.80;;;;;;5053832;28;20032;-72
2021/09/30 10:25:42;;;;;;;0.50;0.50;;;21.70;52.80;;;;;;5053594;28;20047;-73
2021/09/30 10:28:09;;;;;;;0.45;0.45;;;21.70;52.20;;;;;;5053982;28;20500;-73
2021/09/30 10:30:40;;;;;;;0.50;0.50;;;21.80;52.60;;;;;;5052919;28;20449;-72
2021/09/30 10:33:08;;;;;;;0.73;0.47;;;21.90;51.80;;;;;;5053538;28;20029;-74
2021/09/30 10:35:46;;;;;;;1.10;0.50;;;21.90;52.50;;;;;;5053348;28;20049;-71
2021/09/30 10:38:18;;;;;;;2.78;0.70;;;22.00;52.70;;;;;;5053158;28;20092;-70
2021/09/30 10:41:06;;;;;;;1.85;0.50;;;22.00;50.90;;;;;;5053244;28;20021;-71
2021/09/30 10:43:34;;;;;;;5.88;0.60;;;22.10;51.20;;;;;;5052948;28;20025;-71
2021/09/30 10:46:01;;;;;;;1.25;0.65;;;22.10;50.50;;;;;;5053184;28;20021;-71
2021/09/30 10:48:27;;;;;;;3.78;0.70;;;22.20;50.60;;;;;;5053033;28;20029;-70
2021/09/30 10:50:58;;;;;;;1.73;0.50;;;22.20;49.80;;;;;;5053686;28;20052;-71
2021/09/30 10:53:50;;;;;;;2.75;0.50;;;22.20;49.70;;;;;;5052923;28;20091;-70
2021/09/30 10:56:29;;;;;;;2.90;0.50;;;22.20;49.10;;;;;;5050395;28;20508;-69
2021/09/30 10:59:19;;;;;;;0.73;0.50;;;22.20;49.10;;;;;;5053476;28;20124;-70
2021/09/30 11:01:48;;;;;;;1.17;0.35;;;22.30;47.80;;;;;;5044282;28;20040;-70
2021/09/30 11:04:17;;;;;;;0.95;0.50;;;22.30;48.30;;;;;;5053049;28;20036;-69
2021/09/30 11:07:05;;;;;;;1.75;0.40;;;22.30;48.40;;;;;;5052907;28;20393;-71
2021/09/30 11:09:31;;;;;;;2.35;0.50;;;22.30;48.20;;;;;;5053024;28;20032;-69
2021/09/30 11:12:08;;;;;;;1.75;0.40;;;22.30;49.00;;;;;;5052875;28;20037;-70
2021/09/30 11:14:50;;;;;;;2.67;0.50;;;22.30;47.50;;;;;;5052946;28;20560;-69
2021/09/30 11:17:36;;;;;;;0.68;0.50;;;22.30;47.20;;;;;;5052951;28;20021;-70
2021/09/30 11:20:30;;;;;;;2.30;0.55;;;22.40;48.80;;;;;;5052529;28;20025;-69
2021/09/30 11:22:56;;;;;;;2.42;0.70;;;22.30;48.50;;;;;;5053152;28;20021;-69
2021/09/30 11:25:21;;;;;;;3.20;0.55;;;22.40;49.50;;;;;;5052910;28;20481;-70
2021/09/30 11:28:13;;;;;;;0.88;0.50;;;22.40;49.40;;;;;;5052622;28;20104;-71
2021/09/30 11:30:39;;;;;;;1.63;0.60;;;22.40;48.30;;;;;;5049188;28;20111;-77
2021/09/30 11:33:07;;;;;;;1.73;0.50;;;22.40;49.20;;;;;;5050099;28;20428;-75
2021/09/30 11:35:33;;;;;;;0.55;0.45;;;22.50;49.10;;;;;;5051227;28;20366;-74
2021/09/30 11:37:59;;;;;;;2.40;0.60;;;22.50;48.80;;;;;;5052530;28;20043;-71
2021/09/30 11:40:25;;;;;;;3.78;0.50;;;22.50;48.10;;;;;;5052573;28;20056;-72
2021/09/30 11:42:53;;;;;;;1.15;0.40;;;22.50;48.60;;;;;;5052498;28;20070;-71
2021/09/30 11:45:23;;;;;;;0.57;0.43;;;22.50;47.90;;;;;;5052709;28;20104;-71
2021/09/30 11:47:50;;;;;;;0.70;0.55;;;22.50;48.10;;;;;;5052827;28;20025;-72
2021/09/30 11:50:20;;;;;;;4.15;0.70;;;22.60;47.40;;;;;;5052216;28;20029;-73
2021/09/30 11:53:20;;;;;;;1.20;0.40;;;22.60;47.60;;;;;;5052358;28;20030;-71
2021/09/30 11:55:48;;;;;;;0.55;0.50;;;22.60;47.90;;;;;;5049511;28;20025;-73
2021/09/30 11:58:15;;;;;;;2.95;0.60;;;22.60;46.50;;;;;;5052316;28;20115;-74
2021/09/30 12:00:43;;;;;;;0.60;0.50;;;22.60;47.00;;;;;;5052277;28;20096;-77
2021/09/30 12:03:09;;;;;;;2.88;0.40;;;22.60;47.20;;;;;;5052470;28;20021;-77
2021/09/30 12:05:38;;;;;;;4.85;0.50;;;22.60;47.00;;;;;;5052408;28;20535;-80
2021/09/30 12:08:06;;;;;;;1.83;0.60;;;22.60;45.80;;;;;;5052216;28;20150;-78
2021/09/30 12:10:34;;;;;;;5.22;0.73;;;22.60;46.80;;;;;;5051678;28;20021;-79
2021/09/30 12:13:14;;;;;;;2.15;0.60;;;22.60;45.70;;;;;;5052457;28;20041;-79
2021/09/30 12:15:40;;;;;;;4.70;0.70;;;22.60;46.30;;;;;;5052253;28;20032;-78
2021/09/30 12:18:35;;;;;;;1.05;0.55;;;22.60;47.30;;;;;;5052262;28;20029;-79
2021/09/30 12:21:02;;;;;;;1.33;0.70;;;22.70;45.90;;;;;;5038786;28;20420;-78
2021/09/30 12:23:28;;;;;;;0.80;0.43;;;22.60;45.70;;;;;;5050143;28;20572;-76
2021/09/30 12:25:54;;;;;;;1.00;0.50;;;22.60;46.20;;;;;;5049394;28;20100;-77
2021/09/30 12:28:21;;;;;;;0.68;0.40;;;22.60;46.10;;;;;;5049515;28;20056;-77
2021/09/30 12:30:47;;;;;;;1.48;0.73;;;22.60;45.80;;;;;;5053024;28;20136;-77
2021/09/30 12:33:13;;;;;;;1.75;0.50;;;22.60;47.00;;;;;;5055726;28;20047;-77
2021/09/30 12:35:41;;;;;;;1.15;0.88;;;22.60;46.70;;;;;;5055736;28;20481;-78
2021/09/30 12:38:25;;;;;;;1.85;0.60;;;22.60;46.10;;;;;;5055750;28;20381;-76
2021/09/30 12:40:57;;;;;;;1.48;0.60;;;22.60;46.20;;;;;;5055776;28;20437;-76
2021/09/30 12:43:31;;;;;;;1.73;0.60;;;22.60;47.40;;;;;;5055017;28;20106;-77
2021/09/30 12:46:08;;;;;;;2.95;0.80;;;22.60;47.40;;;;;;5055311;28;20033;-77
2021/09/30 12:48:36;;;;;;;0.90;0.60;;;22.70;46.40;;;;;;5055442;28;20100;-76
2021/09/30 12:51:11;;;;;;;3.25;0.60;;;22.70;47.30;;;;;;5055700;28;20037;-76
2021/09/30 12:53:49;;;;;;;0.88;0.57;;;22.70;47.30;;;;;;5055368;28;20025;-76
2021/09/30 12:56:20;;;;;;;1.02;0.60;;;22.70;46.50;;;;;;5055413;28;20033;-75
2021/09/30 12:58:51;;;;;;;1.50;0.60;;;22.70;47.40;;;;;;5055253;28;20025;-76
2021/09/30 13:01:30;;;;;;;5.05;0.68;;;22.70;47.20;;;;;;5055260;28;20112;-76
2021/09/30 13:04:13;;;;;;;0.68;0.60;;;22.70;48.00;;;;;;5055423;28;20017;-76
2021/09/30 13:06:52;;;;;;;1.38;0.50;;;22.70;46.60;;;;;;5055462;28;20071;-75
2021/09/30 13:09:39;;;;;;;3.45;0.73;;;22.70;46.80;;;;;;5054918;28;20489;-75
2021/09/30 13:12:14;;;;;;;2.75;0.93;;;22.70;46.20;;;;;;5054876;28;20068;-74
2021/09/30 13:14:48;;;;;;;0.85;0.50;;;22.70;46.80;;;;;;5055136;28;20495;-76
2021/09/30 13:17:26;;;;;;;0.95;0.55;;;22.70;44.60;;;;;;5053916;28;20033;-76
2021/09/30 13:19:54;;;;;;;2.75;0.52;;;22.80;44.30;;;;;;5054468;28;20171;-75
2021/09/30 13:22:22;;;;;;;2.45;1.05;;;22.80;44.50;;;;;;5054465;28;20353;-78
2021/09/30 13:24:50;;;;;;;3.15;0.60;;;22.80;44.00;;;;;;5054524;28;20043;-77
2021/09/30 13:27:19;;;;;;;1.10;0.55;;;22.70;45.00;;;;;;5054348;28;20028;-76
2021/09/30 13:29:47;;;;;;;2.65;0.65;;;22.80;44.60;;;;;;5054078;28;20037;-78
2021/09/30 13:32:14;;;;;;;1.70;0.60;;;22.70;44.30;;;;;;5054604;28;20092;-76
2021/09/30 13:34:41;;;;;;;0.85;0.45;;;22.70;44.20;;;;;;5054498;28;20504;-76
2021/09/30 13:37:07;;;;;;;1.60;0.52;;;22.70;44.40;;;;;;5054829;28;20029;-76
2021/09/30 13:39:32;;;;;;;2.47;0.50;;;22.70;44.80;;;;;;5054286;28;20037;-76
2021/09/30 13:41:58;;;;;;;3.95;0.65;;;22.70;44.80;;;;;;5054429;28;20100;-76
2021/09/30 13:44:24;;;;;;;0.45;0.40;;;22.60;44.90;;;;;;5054640;28;20467;-77
2021/09/30 13:46:50;;;;;;;0.47;0.40;;;22.70;44.90;;;;;;5054393;28;20029;-76
2021/09/30 13:49:16;;;;;;;0.70;0.50;;;22.60;45.00;;;;;;5054090;28;20033;-75
2021/09/30 13:51:42;;;;;;;1.35;0.57;;;22.60;44.60;;;;;;5054609;28;20489;-76
2021/09/30 13:54:08;;;;;;;1.48;0.65;;;22.60;45.40;;;;;;5054431;28;20032;-75
2021/09/30 13:56:34;;;;;;;1.40;0.70;;;22.60;44.80;;;;;;5052287;28;20025;-74
2021/09/30 13:59:00;;;;;;;0.75;0.60;;;22.50;45.10;;;;;;5052489;28;20029;-74
2021/09/30 14:01:26;;;;;;;1.15;0.63;;;22.60;44.40;;;;;;5051490;28;20418;-74
2021/09/30 14:03:54;;;;;;;1.80;0.55;;;22.60;44.60;;;;;;5053538;28;20017;-74
2021/09/30 14:06:20;;;;;;;2.78;0.60;;;22.60;43.90;;;;;;5053293;28;20025;-73
2021/09/30 14:08:46;;;;;;;3.22;1.00;;;22.60;44.60;;;;;;5052387;28;20103;-74
2021/09/30 14:11:14;;;;;;;8.10;0.70;;;22.60;45.30;;;;;;5053530;28;20043;-74
2021/09/30 14:13:44;;;;;;;0.90;0.60;;;22.60;45.30;;;;;;5053470;28;20032;-76
2021/09/30 14:16:10;;;;;;;0.77;0.60;;;22.50;45.40;;;;;;5053562;28;20033;-77
2021/09/30 14:18:36;;;;;;;2.13;0.90;;;22.50;45.90;;;;;;5053818;28;20101;-77
2021/09/30 14:21:02;;;;;;;3.95;0.77;;;22.50;46.10;;;;;;5053386;28;20425;-76
2021/09/30 14:23:29;;;;;;;1.40;0.80;;;22.50;46.10;;;;;;5053994;28;20028;-77
2021/09/30 14:25:55;;;;;;;1.40;0.60;;;22.50;45.80;;;;;;5054041;28;20071;-75
2021/09/30 14:28:22;;;;;;;3.65;0.60;;;22.50;46.40;;;;;;5053544;28;20150;-76
2021/09/30 14:30:48;;;;;;;0.88;0.70;;;22.50;46.00;;;;;;5053185;28;20044;-76
2021/09/30 14:33:14;;;;;;;2.30;0.90;;;22.50;46.00;;;;;;5053033;28;20029;-75
2021/09/30 14:35:40;;;;;;;1.50;0.70;;;22.50;46.20;;;;;;5053439;28;20027;-76
2021/09/30 14:38:06;;;;;;;1.27;0.80;;;22.50;46.00;;;;;;5053585;28;20021;-75
2021/09/30 14:40:33;;;;;;;0.85;0.60;;;22.40;46.60;;;;;;5053155;28;20025;-76
2021/09/30 14:42:59;;;;;;;2.25;0.90;;;22.40;46.40;;;;;;5053503;28;20389;-75
2021/09/30 14:45:25;;;;;;;3.50;0.70;;;22.40;45.90;;;;;;5052784;28;20029;-76
2021/09/30 14:47:52;;;;;;;2.10;0.70;;;22.50;47.80;;;;;;5052097;28;20021;-78
2021/09/30 14:50:18;;;;;;;1.15;0.88;;;22.40;46.40;;;;;;5050477;28;20028;-74
2021/09/30 14:52:44;;;;;;;1.17;0.70;;;22.50;49.60;;;;;;5049719;28;20136;-75
2021/09/30 14:55:10;;;;;;;1.88;0.60;;;22.40;49.00;;;;;;5051637;28;20032;-74
2021/09/30 14:57:36;;;;;;;1.15;0.65;;;22.40;55.40;;;;;;5053194;28;20032;-76
2021/09/30 15:00:04;;;;;;;3.50;0.75;;;22.40;46.20;;;;;;5052586;28;20025;-75
2021/09/30 15:02:30;;;;;;;2.05;0.70;;;22.30;46.10;;;;;;5052606;28;20412;-74
2021/09/30 15:04:56;;;;;;;1.65;0.60;;;22.30;45.60;;;;;;5053199;28;20021;-74
2021/09/30 15:07:22;;;;;;;1.73;0.75;;;22.30;45.80;;;;;;5053254;28;20613;-76
2021/09/30 15:09:48;;;;;;;3.58;0.70;;;22.20;46.50;;;;;;5053229;28;20465;-74
2021/09/30 15:12:15;;;;;;;2.42;0.70;;;22.30;45.70;;;;;;5051985;28;20049;-74
2021/09/30 15:14:41;;;;;;;3.05;0.60;;;22.20;45.10;;;;;;5052726;28;20063;-76
2021/09/30 15:17:13;;;;;;;1.63;0.77;;;22.20;45.70;;;;;;5053361;28;20029;-74
2021/09/30 15:22:41;;;;;;;2.83;0.70;;;22.10;46.20;;;;;;5011186;28;20010;-73
2021/09/30 15:25:08;;;;;;;2.35;0.70;;;22.20;48.20;;;;;;5044856;28;20037;-77
2021/09/30 15:27:35;;;;;;;2.80;0.90;;;22.10;45.50;;;;;;5053090;28;20028;-75
2021/09/30 15:30:06;;;;;;;1.65;0.70;;;22.10;45.70;;;;;;5052870;28;20098;-75
2021/09/30 15:32:32;;;;;;;3.95;0.73;;;22.10;46.20;;;;;;5052973;28;20041;-73
2021/09/30 15:34:57;;;;;;;0.95;0.60;;;22.10;47.10;;;;;;5052802;28;20382;-76
2021/09/30 15:37:24;;;;;;;1.90;0.43;;;;;;;;;;5053079;28;20032;-75
2021/09/30 15:39:49;;;;;;;3.05;0.68;;;22.00;43.70;;;;;;5051757;28;20415;-74